Time;durP1;ratioP1;P1;durP2;ratioP2;P2;SDS_P1;SDS_P2;PMS_P1;PMS_P2;Temp;Humidity;BMP_temperature;BMP_pressure;BME280_temperature;BME280_humidity;BME280_pressure;Samples;Min_cycle;Max_cycle;Signal;HPM_P1;HPM_P2
2022/12/14 00:01:19;;;;;;;66.10;32.73;;;;;;;-8.57;75.96;100302.67;3160586;88;21456;-77
2022/12/14 00:06:21;;;;;;;65.70;33.58;;;;;;;-8.62;76.12;100295.09;3162440;88;21075;-77
2022/12/14 00:11:15;;;;;;;60.35;32.90;;;;;;;-8.69;76.03;100297.83;3189765;88;21116;-77
2022/12/14 00:16:14;;;;;;;68.62;35.30;;;;;;;-8.74;75.85;100298.71;3151846;89;21132;-77
2022/12/14 00:21:09;;;;;;;70.90;33.10;;;;;;;-8.80;76.07;100292.25;3181693;88;21447;-77
2022/12/14 00:26:18;;;;;;;65.50;32.45;;;;;;;-8.80;75.80;100289.73;3184723;88;22421;-76
2022/12/14 00:31:10;;;;;;;63.70;29.42;;;;;;;-8.88;75.38;100298.77;3214457;87;21098;-76
2022/12/14 00:36:03;;;;;;;52.03;26.35;;;;;;;-8.94;75.59;100301.13;3169324;88;21575;-77
2022/12/14 00:40:55;;;;;;;57.33;27.95;;;;;;;-8.99;75.42;100296.95;3249560;86;21589;-76
2022/12/14 00:45:47;;;;;;;60.45;27.58;;;;;;;-9.06;75.06;100293.39;3201229;87;20982;-75
2022/12/14 00:50:38;;;;;;;47.00;24.72;;;;;;;-9.10;75.13;100300.16;3260802;85;21081;-77
2022/12/14 00:55:29;;;;;;;45.85;25.05;;;;;;;-9.17;74.75;100295.33;3212360;87;21597;-77
2022/12/14 01:00:20;;;;;;;47.62;23.75;;;;;;;-9.29;74.51;100294.77;3140092;89;22037;-77
2022/12/14 01:05:11;;;;;;;50.95;24.60;;;;;;;-9.31;74.98;100296.27;3132247;88;21676;-77
2022/12/14 01:10:03;;;;;;;46.92;21.90;;;;;;;-9.31;75.06;100297.91;3133349;89;21044;-77
2022/12/14 01:14:54;;;;;;;52.50;25.15;;;;;;;-9.40;74.32;100297.97;3166685;87;21081;-77
2022/12/14 01:19:45;;;;;;;44.35;22.95;;;;;;;-9.50;74.58;100297.89;3247783;86;27094;-76
2022/12/14 01:24:36;;;;;;;46.28;22.73;;;;;;;-9.55;74.46;100301.63;3251196;86;21523;-77
2022/12/14 01:29:27;;;;;;;48.40;22.27;;;;;;;-9.65;73.95;100295.77;3256873;86;21544;-77
2022/12/14 01:34:18;;;;;;;47.55;22.50;;;;;;;-9.71;74.16;100294.33;3190971;88;22112;-76
2022/12/14 01:39:15;;;;;;;49.45;24.82;;;;;;;-9.78;74.18;100291.27;3213162;88;25532;-76
2022/12/14 01:44:17;;;;;;;48.87;23.95;;;;;;;-9.85;73.85;100290.59;3251102;86;21677;-76
2022/12/14 01:49:32;;;;;;;52.23;27.37;;;;;;;-9.95;73.91;100287.98;3254918;86;21091;-77
2022/12/14 01:54:26;;;;;;;48.58;24.65;;;;;;;-10.02;73.96;100299.98;3248056;86;21576;-77
2022/12/14 01:59:22;;;;;;;53.52;23.87;;;;;;;-10.17;73.67;100296.08;3239549;87;21041;-77
2022/12/14 02:04:15;;;;;;;42.15;23.00;;;;;;;-10.25;73.79;100290.33;3231861;87;20996;-76
2022/12/14 02:09:15;;;;;;;41.65;23.92;;;;;;;-10.28;73.84;100296.70;3125319;88;21084;-77
2022/12/14 02:14:06;;;;;;;47.00;25.35;;;;;;;-10.34;73.86;100289.52;3152760;89;21086;-77
2022/12/14 02:18:57;;;;;;;53.60;24.57;;;;;;;-10.39;73.77;100294.14;3195813;87;28770;-77
2022/12/14 02:24:23;;;;;;;50.20;24.15;;;;;;;-10.47;73.72;100287.50;3116000;89;21586;-77
2022/12/14 02:30:00;;;;;;;49.63;26.75;;;;;;;-10.51;73.51;100296.77;3209983;87;20981;-77
2022/12/14 02:35:19;;;;;;;48.70;24.43;;;;;;;-10.58;73.44;100291.91;3201760;87;21631;-77
2022/12/14 02:40:34;;;;;;;52.25;25.25;;;;;;;-10.65;73.44;100287.93;3166985;88;21907;-76
2022/12/14 02:45:33;;;;;;;45.85;23.07;;;;;;;-10.73;73.32;100307.67;3154989;88;21072;-77
2022/12/14 02:50:30;;;;;;;53.63;23.85;;;;;;;-10.77;73.22;100309.00;3165120;89;21530;-77
2022/12/14 02:55:25;;;;;;;;;;;;;;;-10.84;73.29;100307.91;3109728;89;21100;-76
2022/12/14 03:00:18;;;;;;;52.88;21.68;;;;;;;-10.87;73.18;100301.37;3151469;89;20377;-76
2022/12/14 03:05:10;;;;;;;49.10;22.87;;;;;;;-11.01;73.11;100310.09;3270982;85;21527;-77
2022/12/14 03:10:30;;;;;;;48.08;21.82;;;;;;;-11.09;73.32;100305.08;3218236;87;21084;-76
2022/12/14 03:15:25;;;;;;;40.67;20.80;;;;;;;-11.18;73.34;100307.21;3235012;85;21039;-77
2022/12/14 03:20:21;;;;;;;46.63;20.68;;;;;;;-11.24;73.33;100310.40;3257912;86;21052;-76
2022/12/14 03:25:24;;;;;;;50.43;23.15;;;;;;;-11.35;73.20;100313.52;3248476;86;24988;-77
2022/12/14 03:30:17;;;;;;;47.00;20.40;;;;;;;-11.40;73.38;100305.91;3237784;87;21229;-77
2022/12/14 03:35:32;;;;;;;48.15;21.62;;;;;;;-11.50;73.21;100302.85;3131986;89;21079;-77
2022/12/14 03:40:30;;;;;;;50.55;22.55;;;;;;;-11.57;72.99;100306.42;3147046;89;21050;-76
2022/12/14 03:45:39;;;;;;;45.52;20.48;;;;;;;-11.64;73.23;100314.08;3160256;89;21078;-76
2022/12/14 03:50:48;;;;;;;40.20;18.32;;;;;;;-11.73;73.22;100316.57;3148057;89;21039;-76
2022/12/14 03:56:00;;;;;;;41.18;21.15;;;;;;;-11.73;73.43;100310.64;3208272;87;22280;-76
2022/12/14 04:01:34;;;;;;;47.58;22.30;;;;;;;-11.74;73.46;100314.78;3134399;89;21017;-77
2022/12/14 04:06:40;;;;;;;43.68;21.95;;;;;;;-11.76;73.40;100316.64;3146344;89;35747;-76
2022/12/14 04:22:06;;;;;;;43.17;20.08;;;;;;;-11.83;73.20;100311.75;3210680;86;21161;-76
2022/12/14 04:27:03;;;;;;;49.23;22.55;;;;;;;-11.84;73.47;100309.59;3232602;87;21273;-76
2022/12/14 04:32:02;;;;;;;48.70;21.60;;;;;;;-11.83;73.42;100310.50;3174182;88;21474;-77
2022/12/14 04:37:02;;;;;;;43.25;21.77;;;;;;;-11.83;73.49;100306.36;3179877;88;22233;-76
2022/12/14 04:41:58;;;;;;;46.58;22.00;;;;;;;-11.80;73.61;100312.03;3209425;88;21513;-76
2022/12/14 04:46:52;;;;;;;49.37;20.27;;;;;;;-11.76;73.60;100307.86;3206732;88;23383;-77
2022/12/14 04:52:01;;;;;;;45.80;20.90;;;;;;;-11.74;73.51;100313.53;3172451;88;21037;-76
2022/12/14 04:57:27;;;;;;;48.10;22.87;;;;;;;-11.73;73.59;100310.30;3200388;87;20945;-76
2022/12/14 05:02:53;;;;;;;60.73;21.40;;;;;;;-11.66;73.73;100313.02;3206682;88;21244;-77
2022/12/14 05:08:11;;;;;;;51.63;22.00;;;;;;;-11.63;73.69;100310.81;3205061;86;22337;-76
2022/12/14 05:13:25;;;;;;;41.45;19.80;;;;;;;-11.62;73.57;100292.53;3120456;89;21607;-77
2022/12/14 05:18:16;;;;;;;56.13;23.50;;;;;;;-11.63;73.62;100293.26;3112243;91;21050;-76
2022/12/14 05:23:07;;;;;;;49.38;21.95;;;;;;;-11.58;73.97;100289.58;3104126;90;21056;-77
2022/12/14 05:27:59;;;;;;;44.55;20.95;;;;;;;-11.52;74.08;100287.69;3054468;91;21080;-77
2022/12/14 05:32:52;;;;;;;44.83;20.48;;;;;;;-11.45;73.96;100294.53;3083754;90;21084;-76
2022/12/14 05:37:46;;;;;;;52.17;23.02;;;;;;;-11.39;74.12;100302.64;3114014;89;21786;-77
2022/12/14 05:42:37;;;;;;;56.42;24.95;;;;;;;-11.34;74.18;100290.17;3108689;89;21627;-77
2022/12/14 05:47:28;;;;;;;50.63;23.27;;;;;;;-11.29;74.24;100299.03;3149022;88;21663;-77
2022/12/14 05:52:20;;;;;;;52.83;22.95;;;;;;;-11.23;74.42;100304.66;3175378;88;25504;-77
2022/12/14 05:57:11;;;;;;;45.38;22.55;;;;;;;-11.18;74.52;100311.36;3230253;87;21044;-76
2022/12/14 06:02:02;;;;;;;48.15;21.75;;;;;;;-11.15;74.40;100311.28;3229209;87;21083;-76
2022/12/14 06:06:53;;;;;;;47.75;24.20;;;;;;;-11.10;74.53;100312.08;3247552;86;21453;-77
2022/12/14 06:11:46;;;;;;;51.75;23.38;;;;;;;-11.09;74.50;100315.12;3160018;89;22306;-77
2022/12/14 06:16:40;;;;;;;52.05;23.25;;;;;;;-11.13;74.52;100323.60;3183256;87;21758;-76
2022/12/14 06:21:35;;;;;;;51.55;21.27;;;;;;;-11.20;74.36;100319.98;3236595;87;21128;-76
2022/12/14 06:26:29;;;;;;;49.08;22.27;;;;;;;-11.29;74.23;100322.88;3203385;88;21201;-77
2022/12/14 06:31:25;;;;;;;48.58;21.45;;;;;;;-11.37;74.27;100323.78;3154084;89;21062;-76
2022/12/14 06:36:29;;;;;;;49.58;21.93;;;;;;;-11.49;73.95;100316.31;3191326;88;21000;-77
2022/12/14 06:41:22;;;;;;;43.20;19.42;;;;;;;-11.56;74.28;100320.71;3122907;89;21569;-75
2022/12/14 06:46:17;;;;;;;43.02;20.75;;;;;;;-11.65;73.88;100320.20;3171200;88;21139;-76
2022/12/14 06:51:08;;;;;;;44.60;19.32;;;;;;;-11.72;73.97;100324.97;3170003;88;22316;-76
2022/12/14 06:56:12;;;;;;;49.98;21.85;;;;;;;-11.77;73.87;100327.02;3184399;87;20983;-78
2022/12/14 07:01:09;;;;;;;48.48;20.02;;;;;;;-11.80;73.82;100328.33;3176111;86;21164;-76
2022/12/14 07:06:02;;;;;;;46.45;18.73;;;;;;;-11.82;73.89;100318.52;3201299;86;21052;-76
2022/12/14 07:10:53;;;;;;;43.45;21.30;;;;;;;-11.82;73.86;100317.27;3178568;88;20993;-74
2022/12/14 07:15:52;;;;;;;48.40;20.57;;;;;;;-11.82;73.80;100317.27;3175004;86;21186;-73
2022/12/14 07:20:43;;;;;;;43.83;20.92;;;;;;;-11.81;73.71;100331.22;3180086;88;21043;-73
2022/12/14 07:25:34;;;;;;;48.68;22.77;;;;;;;-11.79;73.68;100332.63;3173945;88;22383;-73
2022/12/14 07:30:25;;;;;;;46.55;20.15;;;;;;;-11.75;73.55;100339.71;3194544;88;21801;-73
2022/12/14 07:35:17;;;;;;;53.25;22.50;;;;;;;-11.74;73.67;100339.86;3152186;88;21011;-73
2022/12/14 07:40:10;;;;;;;51.70;23.18;;;;;;;-11.66;73.90;100339.36;3196429;86;21160;-73
2022/12/14 07:45:01;;;;;;;50.58;22.87;;;;;;;-11.61;73.67;100338.19;3200473;88;21347;-71
2022/12/14 07:49:51;;;;;;;46.43;22.73;;;;;;;-11.60;73.47;100343.73;3201604;86;21606;-71
2022/12/14 07:54:43;;;;;;;46.55;22.07;;;;;;;-11.57;73.67;100339.03;3161233;88;21110;-71
2022/12/14 07:59:33;;;;;;;49.10;21.90;;;;;;;-11.47;73.84;100334.52;3158941;88;21673;-71
2022/12/14 08:04:25;;;;;;;53.10;23.73;;;;;;;-11.37;73.76;100337.20;3199555;85;21147;-71
2022/12/14 08:09:16;;;;;;;50.08;21.23;;;;;;;-11.29;73.81;100329.53;3153850;88;21635;-71
2022/12/14 08:14:18;;;;;;;46.33;23.42;;;;;;;-11.23;73.87;100329.76;3170997;88;21581;-72
2022/12/14 08:19:11;;;;;;;51.02;24.67;;;;;;;-11.12;73.93;100328.28;3198450;88;20989;-71
2022/12/14 08:24:02;;;;;;;49.45;23.83;;;;;;;-11.03;73.88;100330.41;3192792;88;21060;-74
2022/12/14 08:28:55;;;;;;;50.95;23.12;;;;;;;-10.93;74.00;100328.39;3191372;88;21576;-75
2022/12/14 08:33:47;;;;;;;51.80;25.68;;;;;;;-10.85;74.01;100319.97;3158234;88;21107;-73
2022/12/14 08:38:41;;;;;;;50.45;24.32;;;;;;;-10.76;74.05;100317.06;3176833;88;20996;-72
2022/12/14 08:43:33;;;;;;;57.13;24.60;;;;;;;-10.67;74.11;100316.17;3189825;86;21045;-74
2022/12/14 08:48:24;;;;;;;48.70;23.85;;;;;;;-10.56;74.32;100329.37;3178648;88;21026;-74
2022/12/14 08:53:15;;;;;;;52.30;24.65;;;;;;;-10.45;74.31;100323.70;3196954;87;21281;-73
2022/12/14 08:58:06;;;;;;;59.35;25.50;;;;;;;-10.36;74.44;100324.56;3210413;85;20972;-73
2022/12/14 09:02:58;;;;;;;53.23;23.92;;;;;;;-10.22;74.81;100322.42;3205007;87;21771;-75
2022/12/14 09:07:49;;;;;;;50.03;24.60;;;;;;;-10.02;75.08;100320.48;3213358;87;21818;-73
2022/12/14 09:12:41;;;;;;;47.23;23.02;;;;;;;-9.83;75.37;100314.25;3132509;88;21024;-73
2022/12/14 09:17:33;;;;;;;53.58;22.55;;;;;;;-9.62;75.88;100313.67;3141013;89;21622;-74
2022/12/14 09:22:24;;;;;;;43.02;20.55;;;;;;;-9.48;75.60;100307.34;3181207;88;21062;-74
2022/12/14 09:27:16;;;;;;;50.25;23.60;;;;;;;-9.34;76.92;100298.50;3160341;88;21064;-75
2022/12/14 09:32:07;;;;;;;55.45;27.10;;;;;;;-9.18;76.24;100284.76;3179730;88;20944;-74
2022/12/14 09:37:03;;;;;;;47.33;23.65;;;;;;;-8.96;76.55;100288.38;3187424;88;21035;-74
2022/12/14 09:42:08;;;;;;;53.52;25.37;;;;;;;-8.86;76.60;100273.33;3220367;86;21129;-73
2022/12/14 09:47:20;;;;;;;53.58;26.40;;;;;;;-8.71;76.64;100270.36;3179457;88;21019;-72
2022/12/14 09:52:39;;;;;;;52.23;25.70;;;;;;;-8.61;76.75;100257.80;3198820;86;21008;-73
2022/12/14 09:57:40;;;;;;;50.05;24.82;;;;;;;-8.48;76.96;100265.63;3163439;88;21062;-73
2022/12/14 10:02:58;;;;;;;48.85;23.70;;;;;;;-8.25;77.77;100261.63;3202412;88;21024;-74
2022/12/14 10:08:16;;;;;;;51.58;25.30;;;;;;;-7.99;78.08;100254.07;3242067;87;21381;-74
2022/12/14 10:13:22;;;;;;;50.28;25.48;;;;;;;-7.85;77.98;100244.77;3242010;84;21541;-73
2022/12/14 10:18:41;;;;;;;50.10;27.00;;;;;;;-7.66;78.47;100239.56;3260052;87;20964;-73
2022/12/14 10:23:34;;;;;;;46.13;25.32;;;;;;;-7.42;78.41;100225.53;3217997;87;21253;-73
2022/12/14 10:28:51;;;;;;;43.35;25.65;;;;;;;-6.64;78.53;100221.05;3259443;85;21003;-74
2022/12/14 10:33:46;;;;;;;43.65;24.52;;;;;;;-5.41;76.28;100205.73;3177237;86;21050;-75
2022/12/14 10:39:01;;;;;;;41.35;22.42;;;;;;;-5.72;76.95;100208.06;3172567;88;21022;-75
2022/12/14 10:44:20;;;;;;;44.15;24.37;;;;;;;-5.82;77.53;100194.73;3252509;85;21031;-75
2022/12/14 10:49:39;;;;;;;39.27;22.85;;;;;;;-5.86;77.63;100187.69;3154729;88;21046;-73
2022/12/14 10:54:38;;;;;;;44.75;23.47;;;;;;;-5.88;78.46;100182.91;3239971;87;21509;-73
2022/12/14 10:59:36;;;;;;;46.28;26.15;;;;;;;-5.68;78.74;100167.02;3264363;84;21550;-75
2022/12/14 11:04:38;;;;;;;38.60;22.42;;;;;;;-4.27;77.36;100163.31;3236954;87;21019;-72
2022/12/14 11:09:31;;;;;;;29.60;20.40;;;;;;;-3.02;76.15;100143.33;3241562;87;21011;-73
2022/12/14 11:14:23;;;;;;;34.67;22.85;;;;;;;-2.75;75.44;100129.77;3263929;84;21019;-71
2022/12/14 11:19:18;;;;;;;34.90;22.15;;;;;;;-3.00;75.67;100123.98;3231774;86;21476;-73
2022/12/14 11:24:23;;;;;;;37.28;22.07;;;;;;;-1.74;74.40;100121.20;3232930;87;21208;-74
2022/12/14 11:29:34;;;;;;;35.35;23.50;;;;;;;-0.91;73.60;100104.06;3241216;84;20988;-73
2022/12/14 11:34:33;;;;;;;34.88;22.48;;;;;;;-0.64;72.34;100102.48;3217382;85;20995;-73
2022/12/14 11:39:25;;;;;;;26.77;17.30;;;;;;;-1.28;72.66;100103.36;3230805;87;21530;-74
2022/12/14 11:44:25;;;;;;;30.23;19.35;;;;;;;-1.28;72.72;100091.87;3275581;84;20964;-76
2022/12/14 11:49:37;;;;;;;33.58;20.00;;;;;;;-1.44;72.84;100093.12;3216379;86;21055;-74
2022/12/14 11:54:30;;;;;;;27.77;16.80;;;;;;;-1.82;73.49;100071.48;3219735;87;21015;-75
2022/12/14 11:59:24;;;;;;;25.30;15.85;;;;;;;-2.01;73.18;100072.97;3256238;84;21056;-73
2022/12/14 12:04:16;;;;;;;22.80;14.75;;;;;;;-2.54;73.64;100069.11;3232041;86;21051;-73
2022/12/14 12:09:28;;;;;;;33.38;18.00;;;;;;;-2.99;73.92;100073.58;3155507;88;21290;-74
2022/12/14 12:14:33;;;;;;;27.67;15.85;;;;;;;-3.32;74.83;100070.75;3219838;86;21565;-74
2022/12/14 12:19:33;;;;;;;26.65;16.25;;;;;;;-3.59;75.31;100064.42;3225100;87;21084;-74
2022/12/14 12:24:59;;;;;;;24.10;15.72;;;;;;;-3.81;75.70;100054.95;3244416;86;21059;-76
2022/12/14 12:30:02;;;;;;;33.75;18.52;;;;;;;-4.02;75.96;100047.73;3242382;86;21669;-74
2022/12/14 12:35:08;;;;;;;31.70;18.65;;;;;;;-4.17;76.28;100040.39;3229420;85;21043;-74
2022/12/14 12:40:35;;;;;;;32.75;18.73;;;;;;;-4.30;76.66;100034.52;3240620;86;21054;-74
2022/12/14 12:45:47;;;;;;;30.05;17.12;;;;;;;-4.38;76.90;100031.88;3225587;87;21027;-74
2022/12/14 12:50:58;;;;;;;30.25;16.50;;;;;;;-4.48;77.18;100027.84;3219799;86;20991;-74
2022/12/14 12:55:54;;;;;;;24.70;15.50;;;;;;;-4.56;77.38;100024.31;3224028;87;21079;-73
2022/12/14 13:00:50;;;;;;;33.47;20.10;;;;;;;-4.64;77.43;100025.95;3231172;86;20990;-75
2022/12/14 13:05:42;;;;;;;34.65;19.98;;;;;;;-4.72;77.76;100023.68;3202838;87;22112;-74
2022/12/14 13:10:43;;;;;;;58.78;28.62;;;;;;;-4.77;77.91;100010.72;3203211;86;21067;-72
2022/12/14 13:15:48;;;;;;;45.50;23.47;;;;;;;-4.83;78.02;100008.66;3192850;87;21007;-75
2022/12/14 13:20:40;;;;;;;32.05;21.77;;;;;;;-4.93;78.06;100013.01;3209594;87;20992;-76
2022/12/14 13:26:08;;;;;;;32.42;19.23;;;;;;;-5.07;78.09;100011.67;3230502;85;21130;-74
2022/12/14 13:31:11;;;;;;;34.18;18.02;;;;;;;-5.17;78.39;100016.52;3174069;88;21034;-74
2022/12/14 13:36:19;;;;;;;44.48;22.95;;;;;;;-5.30;78.37;100014.30;3171310;86;22097;-75
2022/12/14 13:41:36;;;;;;;34.53;20.45;;;;;;;-5.42;78.49;100006.72;3185402;87;21605;-75
2022/12/14 13:46:29;;;;;;;42.35;24.18;;;;;;;-5.56;78.51;99990.20;3194679;87;21040;-73
2022/12/14 13:51:30;;;;;;;48.02;25.65;;;;;;;-5.65;78.86;99991.20;3198746;87;20987;-74
2022/12/14 13:56:27;;;;;;;47.93;26.25;;;;;;;-5.78;78.94;99984.41;3183960;88;21180;-74
2022/12/14 14:01:46;;;;;;;49.88;25.75;;;;;;;-5.91;78.96;99973.80;3167466;88;21048;-73
2022/12/14 14:06:46;;;;;;;48.85;26.25;;;;;;;-6.08;78.89;99972.66;3155361;89;21695;-73
2022/12/14 14:11:43;;;;;;;50.25;29.12;;;;;;;-6.21;79.09;99969.63;3133952;88;21078;-74
2022/12/14 14:16:44;;;;;;;53.40;28.17;;;;;;;-6.34;79.26;99961.94;3221690;87;20948;-74
2022/12/14 14:22:00;;;;;;;50.23;28.65;;;;;;;-6.47;79.32;99955.48;3219743;87;21090;-74
2022/12/14 14:27:09;;;;;;;54.75;28.32;;;;;;;-6.64;79.29;99951.75;3221270;87;20980;-76
2022/12/14 14:32:05;;;;;;;50.73;26.48;;;;;;;-6.79;79.37;99946.47;3219756;87;20958;-76
2022/12/14 14:36:56;;;;;;;58.25;31.82;;;;;;;-6.94;79.47;99939.52;3217662;87;21035;-75
2022/12/14 14:41:50;;;;;;;61.35;32.17;;;;;;;-7.06;79.47;99946.55;3158550;87;21028;-75
2022/12/14 14:46:46;;;;;;;63.30;32.15;;;;;;;-7.21;79.56;99947.56;3226081;86;21380;-74
2022/12/14 14:51:37;;;;;;;55.48;29.98;;;;;;;-7.33;79.62;99935.78;3225261;87;21030;-72
2022/12/14 14:56:36;;;;;;;62.13;31.52;;;;;;;-7.46;79.61;99929.29;3185086;87;21039;-75
2022/12/14 15:01:28;;;;;;;67.20;32.42;;;;;;;-7.57;79.57;99930.13;3191372;87;21001;-75
2022/12/14 15:06:34;;;;;;;58.83;30.05;;;;;;;-7.67;79.54;99919.34;3210978;87;21041;-74
2022/12/14 15:11:30;;;;;;;61.28;33.20;;;;;;;-7.79;79.35;99923.84;3188788;87;21873;-75
2022/12/14 15:16:29;;;;;;;53.42;29.25;;;;;;;-7.90;79.31;99910.40;3213633;87;24188;-74
2022/12/14 15:21:21;;;;;;;60.83;31.17;;;;;;;-8.02;79.36;99900.23;3203491;88;21021;-74
2022/12/14 15:26:20;;;;;;;64.25;29.05;;;;;;;-8.11;79.26;99897.00;3160926;88;21057;-74
2022/12/14 15:31:11;;;;;;;59.60;29.65;;;;;;;-8.20;79.33;99880.77;3212562;87;21694;-74
2022/12/14 15:36:16;;;;;;;61.85;30.40;;;;;;;-8.23;79.34;99875.48;3167588;88;21072;-73
2022/12/14 15:41:17;;;;;;;52.73;27.98;;;;;;;-8.28;79.45;99869.19;3181205;88;21546;-74
2022/12/14 15:46:20;;;;;;;56.73;28.23;;;;;;;-8.32;79.29;99870.98;3202101;87;21010;-74
2022/12/14 15:51:16;;;;;;;58.92;28.67;;;;;;;-8.35;79.36;99863.17;3195535;88;21052;-73
2022/12/14 15:56:38;;;;;;;61.13;26.20;;;;;;;-8.37;79.42;99858.04;3168692;88;21062;-73
2022/12/14 16:01:35;;;;;;;58.05;29.92;;;;;;;-8.32;79.90;99853.33;3116956;89;20996;-73
2022/12/14 16:06:28;;;;;;;57.03;28.80;;;;;;;-8.28;79.99;99853.70;3154509;88;21066;-74
2022/12/14 16:11:34;;;;;;;55.30;27.90;;;;;;;-8.19;80.08;99843.45;3157508;87;21013;-75
2022/12/14 16:16:25;;;;;;;57.65;28.62;;;;;;;-8.15;80.15;99837.87;3152625;88;20981;-75
2022/12/14 16:21:32;;;;;;;54.30;25.85;;;;;;;-8.10;80.09;99824.33;3127117;88;21013;-76
2022/12/14 16:26:37;;;;;;;58.20;30.88;;;;;;;-8.06;80.17;99822.56;3145393;88;21512;-74
2022/12/14 16:31:28;;;;;;;51.02;25.82;;;;;;;-8.00;80.30;99825.53;3236618;85;21041;-76
2022/12/14 16:36:26;;;;;;;61.05;29.32;;;;;;;-7.94;80.35;99815.02;3216211;87;21015;-75
2022/12/14 16:41:17;;;;;;;61.73;28.45;;;;;;;-7.86;80.33;99813.97;3197612;88;21042;-74
2022/12/14 16:46:12;;;;;;;55.23;28.32;;;;;;;-7.78;80.42;99810.39;3218229;87;21044;-74
2022/12/14 16:51:24;;;;;;;50.52;26.40;;;;;;;-7.72;80.53;99807.05;3183364;88;21986;-74
2022/12/14 16:56:20;;;;;;;39.33;20.30;;;;;;;-7.60;80.72;99796.09;3224081;86;21006;-74
2022/12/14 17:01:11;;;;;;;56.35;28.87;;;;;;;-7.51;81.08;99782.88;3245715;85;21018;-74
2022/12/14 17:06:05;;;;;;;60.00;28.42;;;;;;;-7.37;80.89;99785.15;3212169;87;21007;-74
2022/12/14 17:10:56;;;;;;;49.85;27.73;;;;;;;-7.29;80.92;99783.69;3179302;88;21647;-75
2022/12/14 17:16:04;;;;;;;58.23;27.35;;;;;;;-7.19;80.93;99783.08;3252593;87;21525;-74
2022/12/14 17:20:56;;;;;;;57.90;27.62;;;;;;;-7.12;80.88;99766.33;3177021;88;21044;-74
2022/12/14 17:25:47;;;;;;;59.10;29.23;;;;;;;-7.07;80.85;99762.48;3205887;87;21526;-74
2022/12/14 17:30:38;;;;;;;52.85;28.45;;;;;;;-7.02;80.82;99750.19;3217155;86;21534;-75
2022/12/14 17:35:31;;;;;;;57.08;28.80;;;;;;;-6.97;80.76;99752.66;3217592;87;25556;-75
2022/12/14 17:40:23;;;;;;;58.60;29.95;;;;;;;-6.96;80.71;99746.42;3259626;85;21986;-75
2022/12/14 17:45:19;;;;;;;52.48;27.45;;;;;;;-6.95;80.59;99730.50;3242807;86;20971;-76
2022/12/14 17:50:14;;;;;;;44.03;24.37;;;;;;;-6.92;80.53;99724.41;3240719;86;20984;-74
2022/12/14 17:55:05;;;;;;;57.08;29.72;;;;;;;-6.90;80.56;99712.75;3217420;86;21363;-74
2022/12/14 18:05:09;;;;;;;54.33;28.07;;;;;;;-6.84;80.51;99705.98;3230919;87;22374;-74
2022/12/14 18:10:00;;;;;;;51.20;25.90;;;;;;;-6.84;80.48;99679.84;3240434;86;20988;-75
2022/12/14 18:14:52;;;;;;;53.42;26.95;;;;;;;-6.80;80.48;99683.06;3250233;86;21012;-74
2022/12/14 18:19:43;;;;;;;58.70;28.90;;;;;;;-6.79;80.53;99669.27;3234877;86;21009;-75
2022/12/14 18:24:34;;;;;;;48.87;26.37;;;;;;;-6.74;80.54;99680.58;3230352;87;21015;-74
2022/12/14 18:29:26;;;;;;;46.93;27.20;;;;;;;-6.69;80.63;99678.34;3210539;85;24920;-74
2022/12/14 18:34:17;;;;;;;59.55;29.07;;;;;;;-6.64;80.65;99668.56;3259525;86;21006;-74
2022/12/14 18:39:08;;;;;;;53.90;26.57;;;;;;;-6.59;80.67;99671.88;3206158;85;21568;-74
2022/12/14 18:44:00;;;;;;;49.48;26.48;;;;;;;-6.53;80.68;99671.05;3217210;86;21071;-75
2022/12/14 18:48:52;;;;;;;49.35;27.48;;;;;;;-6.49;80.63;99671.23;3238492;86;21011;-75
2022/12/14 18:53:43;;;;;;;55.73;27.15;;;;;;;-6.45;80.74;99651.73;3200553;87;21071;-74
2022/12/14 18:58:34;;;;;;;49.55;26.82;;;;;;;-6.40;80.71;99644.03;3237356;86;21589;-73
2022/12/14 19:03:29;;;;;;;52.08;25.97;;;;;;;-6.37;80.74;99653.09;3235407;86;21088;-75
2022/12/14 19:08:20;;;;;;;45.70;26.70;;;;;;;-6.34;80.72;99635.60;3207276;87;21043;-75
2022/12/14 19:13:20;;;;;;;42.90;25.92;;;;;;;-6.32;80.76;99637.84;3237533;87;21838;-75
2022/12/14 19:18:11;;;;;;;52.60;27.05;;;;;;;-6.29;80.83;99639.32;3202908;86;21712;-74
2022/12/14 19:23:02;;;;;;;51.83;28.52;;;;;;;-6.26;80.90;99643.33;3269867;84;21054;-74
2022/12/14 19:27:54;;;;;;;56.53;28.62;;;;;;;-6.20;80.97;99638.66;3255740;86;21290;-74
2022/12/14 19:32:45;;;;;;;54.58;28.15;;;;;;;-6.12;81.05;99644.61;3203104;87;21103;-74
2022/12/14 19:37:36;;;;;;;53.08;27.17;;;;;;;-6.04;81.04;99639.28;3212414;87;21149;-74
2022/12/14 19:42:31;;;;;;;45.80;25.00;;;;;;;-5.96;81.11;99635.97;3223757;85;21146;-75
2022/12/14 19:47:22;;;;;;;53.50;27.32;;;;;;;-5.89;81.08;99638.09;3215678;85;21010;-74
2022/12/14 19:52:13;;;;;;;47.50;24.92;;;;;;;-5.84;81.03;99632.94;3241204;86;21069;-74
2022/12/14 19:57:05;;;;;;;48.40;26.93;;;;;;;-5.80;81.03;99634.87;3227572;86;21705;-73
2022/12/14 20:01:56;;;;;;;50.78;27.52;;;;;;;-5.74;81.10;99635.69;3216574;86;21014;-73
2022/12/14 20:06:47;;;;;;;48.55;27.40;;;;;;;-5.70;81.14;99629.16;3146903;89;21282;-74
2022/12/14 20:11:39;;;;;;;52.13;28.87;;;;;;;-5.66;81.21;99615.52;3142720;89;21057;-74
2022/12/14 20:16:30;;;;;;;51.83;28.73;;;;;;;-5.62;81.35;99601.39;3137317;87;21019;-73
2022/12/14 20:21:22;;;;;;;54.27;28.62;;;;;;;-5.58;81.46;99594.45;3128092;89;24551;-74
2022/12/14 20:26:18;;;;;;;47.73;25.92;;;;;;;-5.54;81.60;99583.77;3160001;89;21702;-74
2022/12/14 20:31:10;;;;;;;54.48;27.52;;;;;;;-5.49;81.68;99576.43;3131210;89;21385;-74
2022/12/14 20:36:01;;;;;;;47.67;25.32;;;;;;;-5.45;81.82;99574.20;3119973;89;21610;-74
2022/12/14 20:40:52;;;;;;;52.53;26.55;;;;;;;-5.42;81.90;99554.13;3148863;89;21098;-74
2022/12/14 20:45:43;;;;;;;45.63;25.62;;;;;;;-5.39;81.99;99540.77;3214784;86;21313;-75
2022/12/14 20:50:41;;;;;;;47.38;27.10;;;;;;;-5.38;82.09;99539.59;3168415;87;21031;-74
2022/12/14 20:55:34;;;;;;;46.42;26.23;;;;;;;-5.34;82.19;99546.98;3186006;87;21725;-74
2022/12/14 21:00:26;;;;;;;55.43;27.02;;;;;;;-5.31;82.24;99539.95;3158720;86;21034;-73
2022/12/14 21:05:17;;;;;;;49.95;26.40;;;;;;;-5.29;82.31;99532.05;3223471;87;21165;-74
2022/12/14 21:10:09;;;;;;;46.18;26.17;;;;;;;-5.27;82.42;99517.84;3127089;89;21021;-74
2022/12/14 21:15:00;;;;;;;38.53;23.42;;;;;;;-5.24;82.46;99515.47;3193801;86;20988;-73
2022/12/14 21:19:52;;;;;;;49.73;26.48;;;;;;;-5.23;82.47;99497.83;3123893;89;21538;-74
2022/12/14 21:24:44;;;;;;;41.88;24.55;;;;;;;-5.20;82.54;99499.69;3193515;88;21014;-73
2022/12/14 21:29:35;;;;;;;39.92;23.32;;;;;;;-5.20;82.54;99487.02;3122184;89;22306;-73
2022/12/14 21:34:27;;;;;;;47.50;26.33;;;;;;;-5.18;82.60;99485.44;3148771;89;25519;-73
2022/12/14 21:39:19;;;;;;;45.78;25.30;;;;;;;-5.18;82.62;99474.04;3095364;89;21052;-73
2022/12/14 21:44:10;;;;;;;43.55;23.83;;;;;;;-5.15;82.73;99480.56;3154322;88;21259;-73
2022/12/14 21:49:01;;;;;;;50.35;27.87;;;;;;;-5.14;82.77;99462.02;3265091;84;21052;-74
2022/12/14 21:53:57;;;;;;;45.83;26.80;;;;;;;-5.12;82.80;99458.31;3181036;87;21501;-74
2022/12/14 21:58:49;;;;;;;39.97;22.90;;;;;;;-5.10;82.77;99456.34;3213910;87;21067;-73
2022/12/14 22:03:40;;;;;;;50.52;24.95;;;;;;;-5.08;82.81;99451.00;3208035;87;20986;-73
2022/12/14 22:08:31;;;;;;;42.45;25.30;;;;;;;-5.06;82.86;99449.42;3133302;88;27596;-73
2022/12/14 22:13:22;;;;;;;38.73;21.97;;;;;;;-5.04;82.90;99435.58;3156545;88;21068;-74
2022/12/14 22:18:14;;;;;;;50.30;26.27;;;;;;;-5.03;82.95;99433.09;3180429;86;21024;-73
2022/12/14 22:23:05;;;;;;;44.42;25.27;;;;;;;-4.99;83.00;99426.17;3240281;87;21550;-74
2022/12/14 22:27:56;;;;;;;39.92;22.73;;;;;;;-4.97;83.03;99412.33;3212317;87;26270;-74
2022/12/14 22:32:47;;;;;;;46.23;26.35;;;;;;;-4.94;83.03;99411.61;3197334;86;21008;-73
2022/12/14 22:37:38;;;;;;;49.18;26.42;;;;;;;-4.93;83.05;99416.78;3216234;87;21102;-74
2022/12/14 22:42:29;;;;;;;46.98;25.50;;;;;;;-4.90;83.14;99418.59;3199727;87;21037;-74
2022/12/14 22:47:20;;;;;;;41.23;25.32;;;;;;;-4.88;83.17;99403.08;3241299;86;21046;-74